Torm Horizon — OYNM2 — position and weather

sailwx.info

Track history (hours):
 
Tides and Currents Weather Stations Pressure Air Temp Water Temp Dewpoint Dewpoint Depression Visibility Wind Speed Wind Dir Waves Ship Positions

Torm Horizon

Last reported at 2018-Feb-21 08:10 UTC. Time now 2018-Feb-23 10:24 UTC.
Position N 44°44' E 037°47'.

Length 183 m; draft 7 m.

Type: Ship (hazmat cat B). MMSI: 220566000.

Date/timePositionNaut miles runAvg speedWind from/ knotsBaromVisibWave heightAir tempDewpointWater temp
2018-Feb-21 08:10N 44°44' E 037°47'0 0.0
2018-Feb-21 07:58N 44°44' E 037°47'0 0.0
2018-Feb-21 07:28N 44°44' E 037°47'0 0.0
2018-Feb-21 07:01N 44°44' E 037°47'1 1.9
2018-Feb-21 06:31N 44°43' E 037°48'4 7.5
2018-Feb-21 06:01N 44°40' E 037°51'3 5.1
2018-Feb-21 05:31N 44°37' E 037°52'2 3.8
2018-Feb-21 05:01N 44°35' E 037°51'4 8.9
2018-Feb-21 04:31N 44°31' E 037°50'613.0
2018-Feb-21 04:01N 44°26' E 037°45'612.6
2018-Feb-21 03:30N 44°21' E 037°39'10 3.6
2018-Feb-21 00:45N 44°13' E 037°31'0 1.3
2018-Feb-21 00:29N 44°13' E 037°31'4 1.3
2018-Feb-20 21:08N 44°16' E 037°35'1 1.2
2018-Feb-20 20:38N 44°17' E 037°36'0 1.3
2018-Feb-20 20:29N 44°17' E 037°36'1 1.4
2018-Feb-20 20:00N 44°17' E 037°37'1 1.5
2018-Feb-20 19:30N 44°18' E 037°37'1 1.6
2018-Feb-20 19:00N 44°19' E 037°38'1 1.7
2018-Feb-20 18:29N 44°19' E 037°39'1 1.7
2018-Feb-20 18:00N 44°20' E 037°39'1 1.7
2018-Feb-20 17:30N 44°21' E 037°40'1 1.6
2018-Feb-20 17:00N 44°21' E 037°41'1 1.5
2018-Feb-20 16:30N 44°22' E 037°42'1 1.3
2018-Feb-20 15:35N 44°23' E 037°42'0 1.3
2018-Feb-20 15:24N 44°23' E 037°42'0 1.2
2018-Feb-20 15:00N 44°24' E 037°43'4 8.0
2018-Feb-20 14:29N 44°20' E 037°40'13 0.5
2018-Feb-19 13:23N 44°07' E 037°44'2 0.4
2018-Feb-19 08:11N 44°08' E 037°41'1 0.6
2018-Feb-19 06:12N 44°08' E 037°40'6 0.9
2018-Feb-18 23:12N 44°13' E 037°35'0 1.0
2018-Feb-18 22:58N 44°13' E 037°34'2 1.1
2018-Feb-18 20:40N 44°16' E 037°33'1 1.2
2018-Feb-18 20:09N 44°16' E 037°33'316.4
2018-Feb-18 19:58N 44°17' E 037°37'3 5.0
2018-Feb-18 19:25N 44°17' E 037°33'4 8.8
2018-Feb-18 18:59N 44°14' E 037°37'5 1.2
2018-Feb-18 14:35N 44°10' E 037°40'0 1.7
2018-Feb-18 14:28N 44°10' E 037°40'1 1.5
2018-Feb-18 13:54N 44°10' E 037°39'1 1.4
2018-Feb-18 13:03N 44°11' E 037°38'0 1.3
2018-Feb-18 12:58N 44°11' E 037°38'1 1.5
2018-Feb-18 12:28N 44°12' E 037°37'1 1.5
2018-Feb-18 12:00N 44°12' E 037°36'1 1.6
2018-Feb-18 11:29N 44°13' E 037°36'1 1.5
2018-Feb-18 10:55N 44°14' E 037°35'1 1.4
2018-Feb-18 10:28N 44°14' E 037°34'1 1.5
2018-Feb-18 09:58N 44°15' E 037°34'1 1.6
2018-Feb-18 09:29N 44°15' E 037°33'1 1.6
2018-Feb-18 08:59N 44°16' E 037°32'1 1.8
2018-Feb-18 08:30N 44°17' E 037°31'1 1.8
2018-Feb-18 07:59N 44°17' E 037°31'1 2.1
2018-Feb-18 07:28N 44°18' E 037°30'1 1.9
2018-Feb-18 06:59N 44°19' E 037°29'1 2.0
2018-Feb-18 06:30N 44°19' E 037°28'1 1.9
2018-Feb-18 06:00N 44°20' E 037°27'1 1.9
2018-Feb-18 05:30N 44°21' E 037°26'1 1.8
2018-Feb-18 04:56N 44°21' E 037°24'1 1.7
2018-Feb-18 04:30N 44°22' E 037°24'2 1.7
2018-Feb-18 03:32N 44°22' E 037°22'0 1.7
2018-Feb-18 03:27N 44°22' E 037°21'17 1.1
2018-Feb-17 11:56N 44°21' E 036°58'2 1.8
2018-Feb-17 11:05N 44°22' E 037°00'0 1.7
2018-Feb-17 10:50N 44°22' E 037°01'1 1.7
2018-Feb-17 10:28N 44°22' E 037°01'1 1.6
2018-Feb-17 09:56N 44°23' E 037°02'1 1.6
2018-Feb-17 09:30N 44°23' E 037°03'4 1.3
2018-Feb-17 06:30N 44°26' E 037°07'1 1.1
2018-Feb-17 06:00N 44°26' E 037°08'1 1.1
2018-Feb-17 05:14N 44°26' E 037°09'1 1.2
2018-Feb-17 04:48N 44°26' E 037°09'1 1.2
2018-Feb-17 04:17N 44°27' E 037°10'2 0.7
2018-Feb-17 01:55N 44°27' E 037°13'2 0.3
2018-Feb-16 18:42N 44°25' E 037°15'0 0.3
2018-Feb-16 18:30N 44°25' E 037°15'0 0.2
2018-Feb-16 17:46N 44°25' E 037°14'1 0.5
2018-Feb-16 16:21N 44°25' E 037°14'1 0.6
2018-Feb-16 15:21N 44°24' E 037°13'0 0.5
2018-Feb-16 14:56N 44°24' E 037°13'0 0.6
2018-Feb-16 14:20N 44°24' E 037°12'1 0.4
2018-Feb-16 11:42N 44°24' E 037°11'0 0.2
2018-Feb-16 11:30N 44°24' E 037°11'0 0.2
2018-Feb-16 10:59N 44°24' E 037°11'0 0.1
2018-Feb-16 08:40N 44°24' E 037°11'0 0.2
2018-Feb-16 08:30N 44°24' E 037°11'0 0.2
2018-Feb-16 07:59N 44°24' E 037°11'0 0.1
2018-Feb-16 07:30N 44°24' E 037°11'0 0.3
2018-Feb-16 07:00N 44°24' E 037°11'0 0.4
2018-Feb-16 06:27N 44°24' E 037°11'0 0.3
2018-Feb-16 05:59N 44°24' E 037°11'0 0.4
2018-Feb-16 05:30N 44°24' E 037°11'0 0.4
2018-Feb-16 04:55N 44°25' E 037°11'1 0.5
2018-Feb-16 02:54N 44°25' E 037°10'0 0.4
2018-Feb-16 02:28N 44°26' E 037°10'1 0.2
2018-Feb-15 21:56N 44°25' E 037°12'1 0.7
2018-Feb-15 20:57N 44°25' E 037°12'4 0.6
2018-Feb-15 14:38N 44°29' E 037°13'0 0.9
2018-Feb-15 14:29N 44°29' E 037°14'0 0.8
2018-Feb-15 14:00N 44°28' E 037°14'0 1.0
2018-Feb-15 13:29N 44°28' E 037°14'1 1.1
2018-Feb-15 13:00N 44°27' E 037°14'1 1.1
2018-Feb-15 12:26N 44°27' E 037°14'4 1.1
2018-Feb-15 09:15N 44°24' E 037°12'1 1.3
2018-Feb-15 08:37N 44°23' E 037°11'0 1.3
2018-Feb-15 08:30N 44°23' E 037°11'10 0.5
2018-Feb-14 14:47N 44°22' E 037°25'310.2
2018-Feb-14 14:30N 44°25' E 037°24'3 6.7
2018-Feb-14 14:00N 44°28' E 037°25'1 1.8
2018-Feb-14 13:28N 44°27' E 037°25'1 1.8
2018-Feb-14 13:00N 44°26' E 037°25'1 1.7
2018-Feb-14 12:30N 44°25' E 037°26'1 1.7
2018-Feb-14 12:00N 44°24' E 037°26'1 1.6
2018-Feb-14 11:30N 44°24' E 037°26'1 1.6
2018-Feb-14 11:00N 44°23' E 037°26'1 1.5
2018-Feb-14 10:30N 44°22' E 037°26'1 1.5
2018-Feb-14 10:00N 44°21' E 037°26'1 1.5
2018-Feb-14 09:13N 44°20' E 037°26'0 1.5
2018-Feb-14 08:59N 44°20' E 037°26'1 1.4
2018-Feb-14 08:24N 44°19' E 037°26'1 1.4
2018-Feb-14 07:54N 44°18' E 037°26'2 1.1
2018-Feb-14 06:14N 44°17' E 037°27'0 1.3
2018-Feb-14 05:55N 44°16' E 037°27'1 1.4
2018-Feb-14 05:29N 44°16' E 037°27'2 1.1
2018-Feb-14 03:19N 44°14' E 037°29'2 0.4
2018-Feb-13 21:21N 44°13' E 037°31'0 0.6
2018-Feb-13 20:42N 44°13' E 037°32'0 0.5
2018-Feb-13 20:25N 44°13' E 037°32'0 0.6
2018-Feb-13 19:40N 44°13' E 037°33'0 0.6
2018-Feb-13 19:04N 44°13' E 037°33'0 0.6
2018-Feb-13 18:58N 44°13' E 037°33'0 0.7
2018-Feb-13 18:30N 44°13' E 037°34'1 0.7
2018-Feb-13 17:40N 44°14' E 037°34'0 0.5
2018-Feb-13 17:24N 44°14' E 037°34'0 0.8
2018-Feb-13 16:57N 44°14' E 037°35'0 0.7
2018-Feb-13 16:28N 44°14' E 037°35'0 0.8
2018-Feb-13 15:54N 44°14' E 037°35'0 0.8
2018-Feb-13 15:26N 44°15' E 037°36'0 0.6
2018-Feb-13 14:58N 44°15' E 037°36'0 0.7
2018-Feb-13 14:30N 44°15' E 037°36'3 0.9
2018-Feb-13 10:43N 44°18' E 037°34'0 0.9
2018-Feb-13 10:20N 44°18' E 037°34'0 0.8
2018-Feb-13 09:59N 44°18' E 037°34'0 0.7
2018-Feb-13 09:21N 44°19' E 037°33'0 0.4
2018-Feb-13 09:00N 44°19' E 037°33'0 0.8
2018-Feb-13 08:30N 44°19' E 037°33'2 3.6
2018-Feb-13 08:00N 44°18' E 037°36'5 6.6
2018-Feb-13 07:15N 44°15' E 037°30'4 4.2
2018-Feb-13 06:17N 44°19' E 037°29'310.3
2018-Feb-13 05:59N 44°22' E 037°29'1 1.2
2018-Feb-13 05:30N 44°22' E 037°29'4 6.3
2018-Feb-13 04:49N 44°18' E 037°32'2 6.2
2018-Feb-13 04:27N 44°16' E 037°34'4 5.6
2018-Feb-13 03:42N 44°15' E 037°40'1 6.0
2018-Feb-13 03:30N 44°15' E 037°41'3 6.0
2018-Feb-13 02:59N 44°16' E 037°45'3 5.8
2018-Feb-13 02:30N 44°17' E 037°49'3 5.6
2018-Feb-13 01:59N 44°19' E 037°52'2 4.0
2018-Feb-13 01:30N 44°20' E 037°50'4 6.3
2018-Feb-13 00:55N 44°21' E 037°45'4 5.6
2018-Feb-13 00:17N 44°22' E 037°40'1 2.7
2018-Feb-12 23:59N 44°21' E 037°40'1 2.9
2018-Feb-12 23:30N 44°21' E 037°38'8 3.0
2018-Feb-12 20:43N 44°15' E 037°30'1 4.6
2018-Feb-12 20:29N 44°15' E 037°31'2 4.6
2018-Feb-12 20:00N 44°16' E 037°34'2 4.3
2018-Feb-12 19:30N 44°17' E 037°37'2 4.0
2018-Feb-12 19:00N 44°18' E 037°39'2 4.0
2018-Feb-12 18:30N 44°19' E 037°42'2 3.5
2018-Feb-12 18:00N 44°20' E 037°44'2 3.5
2018-Feb-12 17:30N 44°21' E 037°46'2 3.5
2018-Feb-12 17:00N 44°23' E 037°47'1 2.8
2018-Feb-12 16:30N 44°24' E 037°47'1 2.9
2018-Feb-12 16:00N 44°25' E 037°48'3 6.5
2018-Feb-12 15:29N 44°23' E 037°45'3 7.1
2018-Feb-12 15:00N 44°21' E 037°41'4 7.2
2018-Feb-12 14:28N 44°18' E 037°37'4 7.3
2018-Feb-12 13:57N 44°16' E 037°33'6 2.0
2018-Feb-12 11:00N 44°21' E 037°27'2 4.2
2018-Feb-12 10:28N 44°23' E 037°28'3 6.3
2018-Feb-12 09:59N 44°22' E 037°24'3 6.9
2018-Feb-12 09:30N 44°22' E 037°19'6 6.0
2018-Feb-12 08:32N 44°23' E 037°11'1 1.5
2018-Feb-12 07:53N 44°24' E 037°10'3 6.0
2018-Feb-12 07:28N 44°24' E 037°13'3 6.3
2018-Feb-12 07:00N 44°25' E 037°17'3 6.3
2018-Feb-12 06:29N 44°26' E 037°22'3 0.6
2018-Feb-12 02:22N 44°25' E 037°18'3 1.7
2018-Feb-12 00:50N 44°23' E 037°19'1 1.6
2018-Feb-12 00:30N 44°22' E 037°19'1 1.7
2018-Feb-11 23:50N 44°21' E 037°19'1 1.4
2018-Feb-11 22:55N 44°20' E 037°20'3 1.7
2018-Feb-11 21:23N 44°19' E 037°23'1 1.9
2018-Feb-11 20:53N 44°18' E 037°25'3 1.6
2018-Feb-11 19:10N 44°18' E 037°29'1 7.3
2018-Feb-11 18:59N 44°19' E 037°28'13 2.2
2018-Feb-11 12:58N 44°18' E 037°10'1 1.0
2018-Feb-11 12:20N 44°18' E 037°11'0 1.5
2018-Feb-11 12:00N 44°18' E 037°11'1 1.4
2018-Feb-11 11:02N 44°19' E 037°13'0 1.3
2018-Feb-11 11:00N 44°19' E 037°13'1 1.0
2018-Feb-11 09:36N 44°20' E 037°14'0 0.9
2018-Feb-11 09:30N 44°20' E 037°14'  
Track history (hours):
 
Tides and Currents Weather Stations Pressure Air Temp Water Temp Dewpoint Dewpoint Depression Visibility Wind Speed Wind Dir Waves Ship Positions

Torm Horizon

Last reported at 2018-Feb-21 08:10 UTC. Time now 2018-Feb-23 10:24 UTC.
Position N 44°44' E 037°47'.

Length 183 m; draft 7 m.

Type: Ship (hazmat cat B). MMSI: 220566000.

Date/timePositionNaut miles runAvg speedWind from/ knotsBaromVisibWave heightAir tempDewpointWater temp
2018-Feb-21 08:10N 44°44' E 037°47'0 0.0
2018-Feb-21 07:58N 44°44' E 037°47'0 0.0
2018-Feb-21 07:28N 44°44' E 037°47'0 0.0
2018-Feb-21 07:01N 44°44' E 037°47'1 1.9
2018-Feb-21 06:31N 44°43' E 037°48'4 7.5
2018-Feb-21 06:01N 44°40' E 037°51'3 5.1
2018-Feb-21 05:31N 44°37' E 037°52'2 3.8
2018-Feb-21 05:01N 44°35' E 037°51'4 8.9
2018-Feb-21 04:31N 44°31' E 037°50'613.0
2018-Feb-21 04:01N 44°26' E 037°45'612.6
2018-Feb-21 03:30N 44°21' E 037°39'10 3.6
2018-Feb-21 00:45N 44°13' E 037°31'0 1.3
2018-Feb-21 00:29N 44°13' E 037°31'4 1.3
2018-Feb-20 21:08N 44°16' E 037°35'1 1.2
2018-Feb-20 20:38N 44°17' E 037°36'0 1.3
2018-Feb-20 20:29N 44°17' E 037°36'1 1.4
2018-Feb-20 20:00N 44°17' E 037°37'1 1.5
2018-Feb-20 19:30N 44°18' E 037°37'1 1.6
2018-Feb-20 19:00N 44°19' E 037°38'1 1.7
2018-Feb-20 18:29N 44°19' E 037°39'1 1.7
2018-Feb-20 18:00N 44°20' E 037°39'1 1.7
2018-Feb-20 17:30N 44°21' E 037°40'1 1.6
2018-Feb-20 17:00N 44°21' E 037°41'1 1.5
2018-Feb-20 16:30N 44°22' E 037°42'1 1.3
2018-Feb-20 15:35N 44°23' E 037°42'0 1.3
2018-Feb-20 15:24N 44°23' E 037°42'0 1.2
2018-Feb-20 15:00N 44°24' E 037°43'4 8.0
2018-Feb-20 14:29N 44°20' E 037°40'13 0.5
2018-Feb-19 13:23N 44°07' E 037°44'2 0.4
2018-Feb-19 08:11N 44°08' E 037°41'1 0.6
2018-Feb-19 06:12N 44°08' E 037°40'6 0.9
2018-Feb-18 23:12N 44°13' E 037°35'0 1.0
2018-Feb-18 22:58N 44°13' E 037°34'2 1.1
2018-Feb-18 20:40N 44°16' E 037°33'1 1.2
2018-Feb-18 20:09N 44°16' E 037°33'316.4
2018-Feb-18 19:58N 44°17' E 037°37'3 5.0
2018-Feb-18 19:25N 44°17' E 037°33'4 8.8
2018-Feb-18 18:59N 44°14' E 037°37'5 1.2
2018-Feb-18 14:35N 44°10' E 037°40'0 1.7
2018-Feb-18 14:28N 44°10' E 037°40'1 1.5
2018-Feb-18 13:54N 44°10' E 037°39'1 1.4
2018-Feb-18 13:03N 44°11' E 037°38'0 1.3
2018-Feb-18 12:58N 44°11' E 037°38'1 1.5
2018-Feb-18 12:28N 44°12' E 037°37'1 1.5
2018-Feb-18 12:00N 44°12' E 037°36'1 1.6
2018-Feb-18 11:29N 44°13' E 037°36'1 1.5
2018-Feb-18 10:55N 44°14' E 037°35'1 1.4
2018-Feb-18 10:28N 44°14' E 037°34'1 1.5
2018-Feb-18 09:58N 44°15' E 037°34'1 1.6
2018-Feb-18 09:29N 44°15' E 037°33'1 1.6
2018-Feb-18 08:59N 44°16' E 037°32'1 1.8
2018-Feb-18 08:30N 44°17' E 037°31'1 1.8
2018-Feb-18 07:59N 44°17' E 037°31'1 2.1
2018-Feb-18 07:28N 44°18' E 037°30'1 1.9
2018-Feb-18 06:59N 44°19' E 037°29'1 2.0
2018-Feb-18 06:30N 44°19' E 037°28'1 1.9
2018-Feb-18 06:00N 44°20' E 037°27'1 1.9
2018-Feb-18 05:30N 44°21' E 037°26'1 1.8
2018-Feb-18 04:56N 44°21' E 037°24'1 1.7
2018-Feb-18 04:30N 44°22' E 037°24'2 1.7
2018-Feb-18 03:32N 44°22' E 037°22'0 1.7
2018-Feb-18 03:27N 44°22' E 037°21'17 1.1
2018-Feb-17 11:56N 44°21' E 036°58'2 1.8
2018-Feb-17 11:05N 44°22' E 037°00'0 1.7
2018-Feb-17 10:50N 44°22' E 037°01'1 1.7
2018-Feb-17 10:28N 44°22' E 037°01'1 1.6
2018-Feb-17 09:56N 44°23' E 037°02'1 1.6
2018-Feb-17 09:30N 44°23' E 037°03'4 1.3
2018-Feb-17 06:30N 44°26' E 037°07'1 1.1
2018-Feb-17 06:00N 44°26' E 037°08'1 1.1
2018-Feb-17 05:14N 44°26' E 037°09'1 1.2
2018-Feb-17 04:48N 44°26' E 037°09'1 1.2
2018-Feb-17 04:17N 44°27' E 037°10'2 0.7
2018-Feb-17 01:55N 44°27' E 037°13'2 0.3
2018-Feb-16 18:42N 44°25' E 037°15'0 0.3
2018-Feb-16 18:30N 44°25' E 037°15'0 0.2
2018-Feb-16 17:46N 44°25' E 037°14'1 0.5
2018-Feb-16 16:21N 44°25' E 037°14'1 0.6
2018-Feb-16 15:21N 44°24' E 037°13'0 0.5
2018-Feb-16 14:56N 44°24' E 037°13'0 0.6
2018-Feb-16 14:20N 44°24' E 037°12'1 0.4
2018-Feb-16 11:42N 44°24' E 037°11'0 0.2
2018-Feb-16 11:30N 44°24' E 037°11'0 0.2
2018-Feb-16 10:59N 44°24' E 037°11'0 0.1
2018-Feb-16 08:40N 44°24' E 037°11'0 0.2
2018-Feb-16 08:30N 44°24' E 037°11'0 0.2
2018-Feb-16 07:59N 44°24' E 037°11'0 0.1
2018-Feb-16 07:30N 44°24' E 037°11'0 0.3
2018-Feb-16 07:00N 44°24' E 037°11'0 0.4
2018-Feb-16 06:27N 44°24' E 037°11'0 0.3
2018-Feb-16 05:59N 44°24' E 037°11'0 0.4
2018-Feb-16 05:30N 44°24' E 037°11'0 0.4
2018-Feb-16 04:55N 44°25' E 037°11'1 0.5
2018-Feb-16 02:54N 44°25' E 037°10'0 0.4
2018-Feb-16 02:28N 44°26' E 037°10'1 0.2
2018-Feb-15 21:56N 44°25' E 037°12'1 0.7
2018-Feb-15 20:57N 44°25' E 037°12'4 0.6
2018-Feb-15 14:38N 44°29' E 037°13'0 0.9
2018-Feb-15 14:29N 44°29' E 037°14'0 0.8
2018-Feb-15 14:00N 44°28' E 037°14'0 1.0
2018-Feb-15 13:29N 44°28' E 037°14'1 1.1
2018-Feb-15 13:00N 44°27' E 037°14'1 1.1
2018-Feb-15 12:26N 44°27' E 037°14'4 1.1
2018-Feb-15 09:15N 44°24' E 037°12'1 1.3
2018-Feb-15 08:37N 44°23' E 037°11'0 1.3
2018-Feb-15 08:30N 44°23' E 037°11'10 0.5
2018-Feb-14 14:47N 44°22' E 037°25'310.2
2018-Feb-14 14:30N 44°25' E 037°24'3 6.7
2018-Feb-14 14:00N 44°28' E 037°25'1 1.8
2018-Feb-14 13:28N 44°27' E 037°25'1 1.8
2018-Feb-14 13:00N 44°26' E 037°25'1 1.7
2018-Feb-14 12:30N 44°25' E 037°26'1 1.7
2018-Feb-14 12:00N 44°24' E 037°26'1 1.6
2018-Feb-14 11:30N 44°24' E 037°26'1 1.6
2018-Feb-14 11:00N 44°23' E 037°26'1 1.5
2018-Feb-14 10:30N 44°22' E 037°26'1 1.5
2018-Feb-14 10:00N 44°21' E 037°26'1 1.5
2018-Feb-14 09:13N 44°20' E 037°26'0 1.5
2018-Feb-14 08:59N 44°20' E 037°26'1 1.4
2018-Feb-14 08:24N 44°19' E 037°26'1 1.4
2018-Feb-14 07:54N 44°18' E 037°26'2 1.1
2018-Feb-14 06:14N 44°17' E 037°27'0 1.3
2018-Feb-14 05:55N 44°16' E 037°27'1 1.4
2018-Feb-14 05:29N 44°16' E 037°27'2 1.1
2018-Feb-14 03:19N 44°14' E 037°29'2 0.4
2018-Feb-13 21:21N 44°13' E 037°31'0 0.6
2018-Feb-13 20:42N 44°13' E 037°32'0 0.5
2018-Feb-13 20:25N 44°13' E 037°32'0 0.6
2018-Feb-13 19:40N 44°13' E 037°33'0 0.6
2018-Feb-13 19:04N 44°13' E 037°33'0 0.6
2018-Feb-13 18:58N 44°13' E 037°33'0 0.7
2018-Feb-13 18:30N 44°13' E 037°34'1 0.7
2018-Feb-13 17:40N 44°14' E 037°34'0 0.5
2018-Feb-13 17:24N 44°14' E 037°34'0 0.8
2018-Feb-13 16:57N 44°14' E 037°35'0 0.7
2018-Feb-13 16:28N 44°14' E 037°35'0 0.8
2018-Feb-13 15:54N 44°14' E 037°35'0 0.8
2018-Feb-13 15:26N 44°15' E 037°36'0 0.6
2018-Feb-13 14:58N 44°15' E 037°36'0 0.7
2018-Feb-13 14:30N 44°15' E 037°36'3 0.9
2018-Feb-13 10:43N 44°18' E 037°34'0 0.9
2018-Feb-13 10:20N 44°18' E 037°34'0 0.8
2018-Feb-13 09:59N 44°18' E 037°34'0 0.7
2018-Feb-13 09:21N 44°19' E 037°33'0 0.4
2018-Feb-13 09:00N 44°19' E 037°33'0 0.8
2018-Feb-13 08:30N 44°19' E 037°33'2 3.6
2018-Feb-13 08:00N 44°18' E 037°36'5 6.6
2018-Feb-13 07:15N 44°15' E 037°30'4 4.2
2018-Feb-13 06:17N 44°19' E 037°29'310.3
2018-Feb-13 05:59N 44°22' E 037°29'1 1.2
2018-Feb-13 05:30N 44°22' E 037°29'4 6.3
2018-Feb-13 04:49N 44°18' E 037°32'2 6.2
2018-Feb-13 04:27N 44°16' E 037°34'4 5.6
2018-Feb-13 03:42N 44°15' E 037°40'1 6.0
2018-Feb-13 03:30N 44°15' E 037°41'3 6.0
2018-Feb-13 02:59N 44°16' E 037°45'3 5.8
2018-Feb-13 02:30N 44°17' E 037°49'3 5.6
2018-Feb-13 01:59N 44°19' E 037°52'2 4.0
2018-Feb-13 01:30N 44°20' E 037°50'4 6.3
2018-Feb-13 00:55N 44°21' E 037°45'4 5.6
2018-Feb-13 00:17N 44°22' E 037°40'1 2.7
2018-Feb-12 23:59N 44°21' E 037°40'1 2.9
2018-Feb-12 23:30N 44°21' E 037°38'8 3.0
2018-Feb-12 20:43N 44°15' E 037°30'1 4.6
2018-Feb-12 20:29N 44°15' E 037°31'2 4.6
2018-Feb-12 20:00N 44°16' E 037°34'2 4.3
2018-Feb-12 19:30N 44°17' E 037°37'2 4.0
2018-Feb-12 19:00N 44°18' E 037°39'2 4.0
2018-Feb-12 18:30N 44°19' E 037°42'2 3.5
2018-Feb-12 18:00N 44°20' E 037°44'2 3.5
2018-Feb-12 17:30N 44°21' E 037°46'2 3.5
2018-Feb-12 17:00N 44°23' E 037°47'1 2.8
2018-Feb-12 16:30N 44°24' E 037°47'1 2.9
2018-Feb-12 16:00N 44°25' E 037°48'3 6.5
2018-Feb-12 15:29N 44°23' E 037°45'3 7.1
2018-Feb-12 15:00N 44°21' E 037°41'4 7.2
2018-Feb-12 14:28N 44°18' E 037°37'4 7.3
2018-Feb-12 13:57N 44°16' E 037°33'6 2.0
2018-Feb-12 11:00N 44°21' E 037°27'2 4.2
2018-Feb-12 10:28N 44°23' E 037°28'3 6.3
2018-Feb-12 09:59N 44°22' E 037°24'3 6.9
2018-Feb-12 09:30N 44°22' E 037°19'6 6.0
2018-Feb-12 08:32N 44°23' E 037°11'1 1.5
2018-Feb-12 07:53N 44°24' E 037°10'3 6.0
2018-Feb-12 07:28N 44°24' E 037°13'3 6.3
2018-Feb-12 07:00N 44°25' E 037°17'3 6.3
2018-Feb-12 06:29N 44°26' E 037°22'3 0.6
2018-Feb-12 02:22N 44°25' E 037°18'3 1.7
2018-Feb-12 00:50N 44°23' E 037°19'1 1.6
2018-Feb-12 00:30N 44°22' E 037°19'1 1.7
2018-Feb-11 23:50N 44°21' E 037°19'1 1.4
2018-Feb-11 22:55N 44°20' E 037°20'3 1.7
2018-Feb-11 21:23N 44°19' E 037°23'1 1.9
2018-Feb-11 20:53N 44°18' E 037°25'3 1.6
2018-Feb-11 19:10N 44°18' E 037°29'1 7.3
2018-Feb-11 18:59N 44°19' E 037°28'13 2.2
2018-Feb-11 12:58N 44°18' E 037°10'1 1.0
2018-Feb-11 12:20N 44°18' E 037°11'0 1.5
2018-Feb-11 12:00N 44°18' E 037°11'1 1.4
2018-Feb-11 11:02N 44°19' E 037°13'0 1.3
2018-Feb-11 11:00N 44°19' E 037°13'1 1.0
2018-Feb-11 09:36N 44°20' E 037°14'0 0.9
2018-Feb-11 09:30N 44°20' E 037°14'  

Dump ship's entire track history